Latest Weather Observations for Murganella Airstrip

IDD60801

Issued at 8:01 pm CST Monday 30 March 2015 (issued every 30 minutes, with the page automatically refreshed every 10 minutes)

About weather observations | Map of weather stations | Latest weather observations for NT | Other Formats
Station Details ID: 014309 Name: MURGANELLA AIRSTRIP Lat: -11.55 Lon: 132.93 Height: 9.5 m
Data from the previous 72 hours. | See also: Recent months for locations in Northern Territory
Date/Time
CST
Temp
°C
App
Temp
°C
Dew
Point
Rel
Hum
%
Delta-T
°C
Wind Press
QNH
hPa
Press
MSL
hPa
Rain
since 9 am
mm
Dir
 
Spd
km/h
Gust
km/h
Spd
kts
Gust
kts
30/08:00pm 26.0 33.1 26.0 100 0.0 CALM 0 0 0 0 1011.9 1011.8 0.0
30/07:30pm 26.5 33.9 26.5 100 0.0 CALM 0 0 0 0 1011.7 1011.6 0.0
30/07:00pm 27.2 35.1 27.2 100 0.0 CALM 0 2 0 1 1011.4 1011.3 0.0
30/06:30pm 28.1 34.1 26.1 89 1.4 E 6 11 3 6 1011.2 1011.1 0.0
30/06:00pm 29.0 34.9 26.2 85 2.0 ESE 7 15 4 8 1010.9 1010.8 0.0
30/05:30pm 29.4 34.4 26.0 82 2.4 E 11 19 6 10 1010.7 1010.6 0.0
30/05:00pm 30.0 35.1 26.2 80 2.7 E 11 24 6 13 1010.6 1010.5 0.0
30/04:30pm 30.0 35.0 26.0 79 2.8 E 11 20 6 11 1010.6 1010.5 0.0
30/04:00pm 29.5 33.9 25.7 80 2.7 E 13 26 7 14 1010.7 1010.6 0.0
30/03:30pm 30.0 34.3 25.5 77 3.2 E 13 24 7 13 1010.6 1010.5 0.0
30/03:00pm 30.4 35.0 25.9 77 3.2 E 13 28 7 15 1010.7 1010.6 0.0
30/02:30pm 30.6 35.2 26.5 79 2.9 E 15 30 8 16 1010.9 1010.8 0.0
30/02:00pm 31.5 35.8 26.7 75 3.5 ENE 17 28 9 15 1010.9 1010.8 0.0
30/01:30pm 30.1 33.2 25.4 76 3.3 E 19 33 10 18 1011.3 1011.2 0.0
30/01:00pm 30.6 35.0 26.3 78 3.1 ENE 15 28 8 15 1011.6 1011.5 0.0
30/12:30pm 30.5 35.0 26.9 81 2.6 ENE 17 32 9 17 1011.8 1011.7 0.0
30/12:00pm 30.3 35.4 27.3 84 2.2 E 15 28 8 15 1012.4 1012.3 0.0
30/11:30am 30.2 35.2 27.6 86 1.9 ENE 17 26 9 14 1012.8 1012.7 0.0
30/11:00am 29.4 33.3 26.6 85 2.0 ENE 19 32 10 17 1013.1 1013.0 0.0
30/10:30am 29.5 33.8 26.7 85 2.0 E 17 32 9 17 1013.2 1013.1 0.0
30/10:00am 29.5 34.9 27.7 90 1.3 ENE 15 24 8 13 1013.3 1013.2 0.0
30/09:30am 29.2 34.9 28.1 94 0.8 E 15 28 8 15 1013.3 1013.2 0.0
30/09:00am 28.6 35.1 28.6 100 0.0 E 13 22 7 12 1013.2 1013.1 0.0
30/08:30am 27.8 34.0 27.8 100 0.0 E 11 20 6 11 1012.8 1012.7 0.0
30/08:00am 26.0 33.1 26.0 100 0.0 CALM 0 0 0 0 1012.7 1012.6 0.0
30/07:30am 23.8 29.5 23.8 100 0.0 CALM 0 0 0 0 1012.4 1012.3 0.0
30/07:00am 22.3 27.2 22.3 100 0.0 CALM 0 0 0 0 1012.0 1011.9 0.0
30/06:30am 22.6 27.7 22.6 100 0.0 CALM 0 0 0 0 1011.7 1011.6 0.0
30/06:00am 23.2 28.2 23.2 100 0.0 ESE 2 2 1 1 1011.3 1011.2 0.0
30/05:30am 23.4 28.1 23.4 100 0.0 SE 4 6 2 3 1011.1 1011.0 0.0
30/05:00am 23.3 28.4 23.3 100 0.0 SE 2 4 1 2 1011.1 1011.0 0.0
30/04:30am 23.5 29.1 23.5 100 0.0 CALM 0 0 0 0 1011.0 1010.9 0.0
30/04:00am 23.8 29.5 23.8 100 0.0 CALM 0 0 0 0 1011.0 1010.9 0.0
30/03:30am 24.1 30.0 24.1 100 0.0 CALM 0 0 0 0 1011.1 1011.0 0.0
30/03:00am 24.4 30.5 24.4 100 0.0 CALM 0 0 0 0 1011.3 1011.2 0.0
30/02:30am 24.7 30.2 24.7 100 0.0 SSE 4 6 2 3 1011.4 1011.3 0.0
30/02:00am 24.8 31.1 24.8 100 0.0 CALM 0 0 0 0 1011.6 1011.5 0.0
30/01:30am 24.3 30.3 24.3 100 0.0 CALM 0 0 0 0 1011.8 1011.7 0.0
30/01:00am 24.0 29.8 24.0 100 0.0 CALM 0 0 0 0 1012.1 1012.0 0.0
30/12:30am 23.9 29.7 23.9 100 0.0 CALM 0 0 0 0 1012.5 1012.4 0.0
30/12:00am 24.0 29.8 24.0 100 0.0 CALM 0 0 0 0 1012.7 1012.6 0.0
 
Date/Time
CST
Temp
°C
App
Temp
°C
Dew
Point
Rel
Hum
%
Delta-T
°C
Wind Press
QNH
hPa
Press
MSL
hPa
Rain
since 9 am
mm
Dir
 
Spd
km/h
Gust
km/h
Spd
kts
Gust
kts
29/11:30pm 24.1 30.0 24.1 100 0.0 CALM 0 0 0 0 1012.8 1012.7 0.0
29/11:00pm 24.2 30.2 24.2 100 0.0 CALM 0 0 0 0 1012.8 1012.7 0.0
29/10:30pm 24.3 30.3 24.3 100 0.0 CALM 0 0 0 0 1012.9 1012.8 0.0
29/10:00pm 24.5 30.6 24.5 100 0.0 CALM 0 0 0 0 1012.9 1012.8 0.0
29/09:30pm 24.6 30.8 24.6 100 0.0 CALM 0 0 0 0 1012.8 1012.7 0.0
29/09:00pm 24.8 31.1 24.8 100 0.0 CALM 0 0 0 0 1012.6 1012.5 0.0
29/08:30pm 25.1 31.6 25.1 100 0.0 CALM 0 0 0 0 1012.2 1012.1 0.0
29/08:00pm 25.6 32.4 25.6 100 0.0 CALM 0 0 0 0 1011.9 1011.8 0.0
29/07:30pm 26.2 33.4 26.2 100 0.0 CALM 0 0 0 0 1011.5 1011.4 0.0
29/07:00pm 27.1 34.4 26.9 99 0.1 E 2 6 1 3 1011.3 1011.2 0.0
29/06:30pm 28.0 33.9 25.4 86 1.8 E 4 7 2 4 1011.0 1010.9 0.0
29/06:00pm 28.9 33.7 25.1 80 2.7 E 9 17 5 9 1010.8 1010.7 0.0
29/05:30pm 29.5 32.9 24.1 72 3.8 E 13 20 7 11 1010.8 1010.7 0.0
29/05:00pm 29.9 33.5 24.3 72 3.9 E 13 22 7 12 1010.8 1010.7 0.0
29/04:30pm 30.0 33.1 24.2 71 4.0 E 15 26 8 14 1010.6 1010.5 0.0
29/04:00pm 30.8 35.1 24.9 71 4.1 E 11 20 6 11 1010.4 1010.3 0.0
29/03:30pm 30.5 33.8 23.9 68 4.6 ENE 13 28 7 15 1010.5 1010.4 0.0
29/03:00pm 30.8 34.2 24.0 67 4.7 ENE 13 22 7 12 1010.7 1010.6 0.0
29/02:30pm 31.0 34.2 24.4 68 4.6 E 15 30 8 16 1010.8 1010.7 0.0
29/02:00pm 31.0 33.9 23.9 66 4.9 ENE 15 24 8 13 1011.1 1011.0 0.0
29/01:30pm 31.6 35.8 24.7 67 4.8 E 11 22 6 12 1011.5 1011.4 0.0
29/01:00pm 31.0 33.7 22.9 62 5.6 E 13 26 7 14 1011.7 1011.6 0.0
29/12:30pm 31.0 34.5 24.9 70 4.3 E 15 22 8 12 1012.1 1012.0 0.0
29/12:00pm 30.8 34.0 23.7 66 4.9 ENE 13 28 7 15 1012.6 1012.5 0.0
29/11:30am 30.8 34.8 24.4 68 4.5 E 11 22 6 12 1013.1 1013.0 0.0
29/11:00am 30.6 34.0 24.0 68 4.6 E 13 22 7 12 1013.2 1013.1 0.0
29/10:30am 30.4 35.9 26.1 78 3.1 E 9 15 5 8 1013.3 1013.2 0.0
29/10:00am 29.7 35.2 26.7 84 2.2 E 11 22 6 12 1013.2 1013.1 0.0
29/09:30am 29.0 36.4 28.8 99 0.1 E 9 15 5 8 1013.1 1013.0 0.0
29/09:00am 28.0 35.1 28.0 100 0.0 ESE 7 11 4 6 1013.0 1012.9 0.0
29/08:30am 27.2 34.0 27.2 100 0.0 SE 6 11 3 6 1012.9 1012.8 0.0
29/08:00am 25.6 31.7 25.6 100 0.0 SSE 4 6 2 3 1012.7 1012.6 0.0
29/07:30am 23.8 29.5 23.8 100 0.0 CALM 0 0 0 0 1012.4 1012.3 0.0
29/07:00am 22.2 27.0 22.2 100 0.0 CALM 0 0 0 0 1012.1 1012.0 0.0
29/06:30am 22.1 26.9 22.1 100 0.0 CALM 0 0 0 0 1011.7 1011.6 0.0
29/06:00am 22.2 27.0 22.2 100 0.0 CALM 0 0 0 0 1011.4 1011.3 0.0
29/05:30am 22.4 27.3 22.4 100 0.0 CALM 0 2 0 1 1011.2 1011.1 0.0
29/05:00am 22.9 28.1 22.9 100 0.0 CALM 0 0 0 0 1011.1 1011.0 0.0
29/04:30am 22.8 28.0 22.8 100 0.0 CALM 0 0 0 0 1010.9 1010.8 0.0
29/04:00am 22.8 28.0 22.8 100 0.0 CALM 0 0 0 0 1010.9 1010.8 0.0
29/03:30am 23.0 28.3 23.0 100 0.0 CALM 0 0 0 0 1010.9 1010.8 0.0
29/03:00am 23.2 28.6 23.2 100 0.0 CALM 0 0 0 0 1011.0 1010.9 0.0
29/02:30am 23.2 28.6 23.2 100 0.0 CALM 0 0 0 0 1011.3 1011.2 0.0
29/02:00am 23.4 28.9 23.4 100 0.0 CALM 0 0 0 0 1011.5 1011.4 0.0
29/01:30am 23.5 29.1 23.5 100 0.0 CALM 0 0 0 0 1011.9 1011.8 0.0
29/01:00am 23.6 29.2 23.6 100 0.0 CALM 0 0 0 0 1012.4 1012.3 0.0
29/12:30am 23.7 29.4 23.7 100 0.0 CALM 0 0 0 0 1012.7 1012.6 0.0
29/12:00am 23.8 29.5 23.8 100 0.0 CALM 0 0 0 0 1012.9 1012.8 0.0
 
Date/Time
CST
Temp
°C
App
Temp
°C
Dew
Point
Rel
Hum
%
Delta-T
°C
Wind Press
QNH
hPa
Press
MSL
hPa
Rain
since 9 am
mm
Dir
 
Spd
km/h
Gust
km/h
Spd
kts
Gust
kts
28/11:30pm 24.0 29.8 24.0 100 0.0 CALM 0 0 0 0 1012.9 1012.8 0.0
28/11:00pm 24.3 30.3 24.3 100 0.0 CALM 0 0 0 0 1013.1 1013.0 0.0
28/10:30pm 24.4 30.5 24.4 100 0.0 CALM 0 0 0 0 1013.1 1013.0 0.0
28/10:00pm 24.6 30.8 24.6 100 0.0 CALM 0 0 0 0 1013.0 1012.9 0.0
28/09:30pm 24.8 31.1 24.8 100 0.0 CALM 0 0 0 0 1012.8 1012.7 0.0
28/09:00pm 25.1 31.6 25.1 100 0.0 CALM 0 0 0 0 1012.6 1012.5 0.0
28/08:30pm 25.4 32.1 25.4 100 0.0 CALM 0 0 0 0 1012.3 1012.2 0.0
28/08:00pm 25.8 32.8 25.8 100 0.0 CALM 0 0 0 0 1011.9 1011.8 0.0
28/07:30pm 26.2 33.4 26.2 100 0.0 CALM 0 0 0 0 1011.5 1011.4 0.0
28/07:00pm 26.8 34.4 26.8 100 0.0 CALM 0 2 0 1 1011.2 1011.1 0.0
28/06:30pm 27.5 34.7 27.3 99 0.1 NE 4 6 2 3 1010.9 1010.8 0.0
28/06:00pm 28.4 34.0 25.8 86 1.8 ENE 7 11 4 6 1010.8 1010.7 0.0
28/05:30pm 29.8 35.6 25.8 79 2.8 ENE 6 13 3 7 1010.7 1010.6 0.0
28/05:00pm 30.2 34.9 25.0 73 3.7 NE 9 17 5 9 1010.6 1010.5 0.0
28/04:30pm 30.8 36.2 25.4 73 3.8 ENE 7 13 4 7 1010.7 1010.6 0.0
28/04:00pm 30.4 34.2 24.1 69 4.4 E 11 20 6 11 1010.1 1010.0 0.0
28/03:30pm 31.2 36.1 25.8 73 3.8 NE 11 20 6 11 1010.2 1010.1 0.0
28/03:00pm 31.0 35.1 24.6 68 4.5 ENE 11 20 6 11 1010.5 1010.4 0.0
28/02:30pm 31.0 35.4 25.1 71 4.2 ENE 11 22 6 12 1010.9 1010.8 0.0
28/02:00pm 30.9 35.7 25.7 74 3.7 E 11 19 6 10 1011.1 1011.0 0.0
28/01:30pm 31.0 36.6 26.3 76 3.4 ENE 9 19 5 10 1011.6 1011.5 0.0
28/01:00pm 30.3 36.0 26.5 80 2.7 ENE 9 19 5 10 1012.1 1012.0 0.0
28/12:30pm 31.3 37.5 27.2 79 3.0 ENE 9 20 5 11 1012.5 1012.4 0.0
28/12:00pm 31.1 36.4 27.0 79 3.0 ESE 13 24 7 13 1012.9 1012.8 0.0
28/11:30am 31.4 39.1 29.2 88 1.6 ENE 9 17 5 9 1013.0 1012.9 0.0
28/11:00am 30.3 36.8 27.1 83 2.3 E 7 15 4 8 1013.3 1013.2 0.0
28/10:30am 30.7 38.9 29.2 92 1.1 NNE 6 11 3 6 1013.4 1013.3 0.0
28/10:00am 30.0 40.0 30.0 100 0.0 CALM 0 2 0 1 1013.3 1013.2 0.0
28/09:30am 28.8 37.9 28.8 100 0.0 CALM 0 2 0 1 1013.4 1013.3 0.0
28/09:00am 28.3 36.6 28.3 100 0.0 WNW 2 6 1 3 1013.3 1013.2 0.2
28/08:30am 27.0 34.8 27.0 100 0.0 CALM 0 0 0 0 1013.1 1013.0 0.2
28/08:00am 25.8 32.8 25.8 100 0.0 CALM 0 0 0 0 1012.9 1012.8 0.2
28/07:30am 24.4 30.5 24.4 100 0.0 CALM 0 0 0 0 1012.5 1012.4 0.2
28/07:00am 23.0 28.3 23.0 100 0.0 CALM 0 0 0 0 1012.2 1012.1 0.2
28/06:30am 23.0 28.3 23.0 100 0.0 CALM 0 0 0 0 1011.8 1011.7 0.2
28/06:00am 23.1 28.4 23.1 100 0.0 CALM 0 0 0 0 1011.5 1011.4 0.2
28/05:30am 23.3 28.7 23.3 100 0.0 CALM 0 0 0 0 1011.4 1011.3 0.2
28/05:00am 23.5 29.1 23.5 100 0.0 CALM 0 0 0 0 1011.4 1011.3 0.2
28/04:30am 23.5 29.1 23.5 100 0.0 CALM 0 0 0 0 1011.2 1011.1 0.2
28/04:00am 23.5 29.1 23.5 100 0.0 CALM 0 0 0 0 1011.4 1011.3 0.2
28/03:30am 23.6 29.2 23.6 100 0.0 CALM 0 0 0 0 1011.3 1011.2 0.2
28/03:00am 23.8 29.5 23.8 100 0.0 CALM 0 0 0 0 1011.3 1011.2 0.2
28/02:30am 23.9 29.7 23.9 100 0.0 CALM 0 0 0 0 1011.7 1011.6 0.2
28/02:00am 24.0 29.8 24.0 100 0.0 CALM 0 0 0 0 1012.1 1012.0 0.2
28/01:30am 24.1 30.0 24.1 100 0.0 CALM 0 0 0 0 1012.5 1012.4 0.2
28/01:00am 24.1 30.0 24.1 100 0.0 CALM 0 0 0 0 1012.8 1012.7 0.2
28/12:30am 24.3 30.3 24.3 100 0.0 CALM 0 0 0 0 1013.3 1013.2 0.2
28/12:00am 24.3 30.3 24.3 100 0.0 CALM 0 0 0 0 1013.6 1013.5 0.2
 
Date/Time
CST
Temp
°C
App
Temp
°C
Dew
Point
Rel
Hum
%
Delta-T
°C
Wind Press
QNH
hPa
Press
MSL
hPa
Rain
since 9 am
mm
Dir
 
Spd
km/h
Gust
km/h
Spd
kts
Gust
kts
27/11:30pm 24.5 30.6 24.5 100 0.0 CALM 0 0 0 0 1013.7 1013.6 0.2
27/11:00pm 24.6 30.8 24.6 100 0.0 CALM 0 0 0 0 1013.6 1013.5 0.2
27/10:30pm 24.7 31.0 24.7 100 0.0 CALM 0 0 0 0 1013.8 1013.7 0.2
27/10:00pm 24.8 31.1 24.8 100 0.0 CALM 0 0 0 0 1013.7 1013.6 0.2
27/09:30pm 25.1 31.6 25.1 100 0.0 CALM 0 0 0 0 1013.8 1013.7 0.2
27/09:00pm 25.2 31.8 25.2 100 0.0 CALM 0 0 0 0 1013.8 1013.7 0.2
27/08:30pm 25.5 32.3 25.5 100 0.0 CALM 0 0 0 0 1013.6 1013.5 0.2

Other Formats:

Comma delimited format used in spreadsheet applications
http://www.bom.gov.au/fwo/IDD60801/IDD60801.94109.axf

JavaScript Object Notation format (JSON) in row-major order
http://www.bom.gov.au/fwo/IDD60801/IDD60801.94109.json